sensor_id;sensor_type;location;lat;lon;timestamp;P1;durP1;ratioP1;P2;durP2;ratioP2
9330;SDS011;4704;50.470;12.072;2022-09-21T00:01:07;1.00;;;0.85;;
9330;SDS011;4704;50.470;12.072;2022-09-21T00:03:36;1.15;;;1.05;;
9330;SDS011;4704;50.470;12.072;2022-09-21T00:06:06;0.80;;;0.80;;
9330;SDS011;4704;50.470;12.072;2022-09-21T00:08:34;1.20;;;1.10;;
9330;SDS011;4704;50.470;12.072;2022-09-21T00:11:01;0.80;;;0.80;;
9330;SDS011;4704;50.470;12.072;2022-09-21T00:13:29;0.85;;;0.85;;
9330;SDS011;4704;50.470;12.072;2022-09-21T00:16:03;1.13;;;1.00;;
9330;SDS011;4704;50.470;12.072;2022-09-21T00:18:31;1.27;;;1.00;;
9330;SDS011;4704;50.470;12.072;2022-09-21T00:21:01;1.02;;;0.90;;
9330;SDS011;4704;50.470;12.072;2022-09-21T00:23:33;0.98;;;0.95;;
9330;SDS011;4704;50.470;12.072;2022-09-21T00:26:05;1.35;;;1.20;;
9330;SDS011;4704;50.470;12.072;2022-09-21T00:28:33;0.80;;;0.80;;
9330;SDS011;4704;50.470;12.072;2022-09-21T00:31:01;1.33;;;1.00;;
9330;SDS011;4704;50.470;12.072;2022-09-21T00:33:28;2.05;;;0.90;;
9330;SDS011;4704;50.470;12.072;2022-09-21T00:36:02;1.63;;;0.93;;
9330;SDS011;4704;50.470;12.072;2022-09-21T00:38:29;0.98;;;0.88;;
9330;SDS011;4704;50.470;12.072;2022-09-21T00:40:58;0.95;;;0.93;;
9330;SDS011;4704;50.470;12.072;2022-09-21T00:43:26;1.65;;;1.00;;
9330;SDS011;4704;50.470;12.072;2022-09-21T00:45:55;0.80;;;0.80;;
9330;SDS011;4704;50.470;12.072;2022-09-21T00:48:24;0.80;;;0.80;;
9330;SDS011;4704;50.470;12.072;2022-09-21T00:50:53;1.00;;;0.90;;
9330;SDS011;4704;50.470;12.072;2022-09-21T00:53:22;1.10;;;1.00;;
9330;SDS011;4704;50.470;12.072;2022-09-21T00:55:51;1.92;;;1.10;;
9330;SDS011;4704;50.470;12.072;2022-09-21T00:58:21;1.88;;;0.95;;
9330;SDS011;4704;50.470;12.072;2022-09-21T01:00:50;1.23;;;1.00;;
9330;SDS011;4704;50.470;12.072;2022-09-21T01:03:17;1.00;;;0.88;;
9330;SDS011;4704;50.470;12.072;2022-09-21T01:05:45;1.27;;;0.90;;
9330;SDS011;4704;50.470;12.072;2022-09-21T01:08:13;1.00;;;0.80;;
9330;SDS011;4704;50.470;12.072;2022-09-21T01:10:46;0.80;;;0.80;;
9330;SDS011;4704;50.470;12.072;2022-09-21T01:13:17;2.28;;;0.90;;
9330;SDS011;4704;50.470;12.072;2022-09-21T01:15:49;0.82;;;0.82;;
9330;SDS011;4704;50.470;12.072;2022-09-21T01:18:19;0.80;;;0.80;;
9330;SDS011;4704;50.470;12.072;2022-09-21T01:21:06;2.15;;;0.82;;
9330;SDS011;4704;50.470;12.072;2022-09-21T01:23:42;0.90;;;0.90;;
9330;SDS011;4704;50.470;12.072;2022-09-21T01:26:15;0.82;;;0.80;;
9330;SDS011;4704;50.470;12.072;2022-09-21T01:31:32;1.00;;;0.90;;
9330;SDS011;4704;50.470;12.072;2022-09-21T01:34:02;0.80;;;0.80;;
9330;SDS011;4704;50.470;12.072;2022-09-21T01:36:33;1.00;;;0.90;;
9330;SDS011;4704;50.470;12.072;2022-09-21T01:39:02;0.80;;;0.80;;
9330;SDS011;4704;50.470;12.072;2022-09-21T01:41:32;0.88;;;0.80;;
9330;SDS011;4704;50.470;12.072;2022-09-21T01:44:02;0.88;;;0.88;;
9330;SDS011;4704;50.470;12.072;2022-09-21T01:46:35;0.98;;;0.90;;
9330;SDS011;4704;50.470;12.072;2022-09-21T01:49:04;1.08;;;0.98;;
9330;SDS011;4704;50.470;12.072;2022-09-21T01:51:33;0.80;;;0.80;;
9330;SDS011;4704;50.470;12.072;2022-09-21T01:54:03;0.70;;;0.70;;
9330;SDS011;4704;50.470;12.072;2022-09-21T01:56:34;0.80;;;0.80;;
9330;SDS011;4704;50.470;12.072;2022-09-21T01:59:05;0.95;;;0.80;;
9330;SDS011;4704;50.470;12.072;2022-09-21T02:01:36;0.93;;;0.93;;
9330;SDS011;4704;50.470;12.072;2022-09-21T02:04:08;0.75;;;0.70;;
9330;SDS011;4704;50.470;12.072;2022-09-21T02:06:36;0.80;;;0.70;;
9330;SDS011;4704;50.470;12.072;2022-09-21T02:09:04;0.77;;;0.77;;
9330;SDS011;4704;50.470;12.072;2022-09-21T02:11:33;1.17;;;0.80;;
9330;SDS011;4704;50.470;12.072;2022-09-21T02:14:03;0.95;;;0.90;;
9330;SDS011;4704;50.470;12.072;2022-09-21T02:16:37;0.80;;;0.80;;
9330;SDS011;4704;50.470;12.072;2022-09-21T02:19:10;1.02;;;0.70;;
9330;SDS011;4704;50.470;12.072;2022-09-21T02:21:43;0.73;;;0.73;;
9330;SDS011;4704;50.470;12.072;2022-09-21T02:24:13;0.63;;;0.63;;
9330;SDS011;4704;50.470;12.072;2022-09-21T02:26:48;0.80;;;0.80;;
9330;SDS011;4704;50.470;12.072;2022-09-21T02:29:22;0.55;;;0.55;;
9330;SDS011;4704;50.470;12.072;2022-09-21T02:31:54;0.93;;;0.82;;
9330;SDS011;4704;50.470;12.072;2022-09-21T02:34:27;0.65;;;0.65;;
9330;SDS011;4704;50.470;12.072;2022-09-21T02:36:59;0.70;;;0.70;;
9330;SDS011;4704;50.470;12.072;2022-09-21T02:39:29;0.82;;;0.82;;
9330;SDS011;4704;50.470;12.072;2022-09-21T02:42:00;1.38;;;0.82;;
9330;SDS011;4704;50.470;12.072;2022-09-21T02:44:30;0.77;;;0.77;;
9330;SDS011;4704;50.470;12.072;2022-09-21T02:47:02;0.68;;;0.68;;
9330;SDS011;4704;50.470;12.072;2022-09-21T02:49:31;0.60;;;0.60;;
9330;SDS011;4704;50.470;12.072;2022-09-21T02:52:01;0.75;;;0.75;;
9330;SDS011;4704;50.470;12.072;2022-09-21T02:54:31;0.70;;;0.70;;
9330;SDS011;4704;50.470;12.072;2022-09-21T02:56:59;0.68;;;0.68;;
9330;SDS011;4704;50.470;12.072;2022-09-21T02:59:28;0.70;;;0.60;;
9330;SDS011;4704;50.470;12.072;2022-09-21T03:01:55;0.50;;;0.50;;
9330;SDS011;4704;50.470;12.072;2022-09-21T03:04:25;0.77;;;0.70;;
9330;SDS011;4704;50.470;12.072;2022-09-21T03:06:53;0.68;;;0.68;;
9330;SDS011;4704;50.470;12.072;2022-09-21T03:09:21;0.90;;;0.90;;
9330;SDS011;4704;50.470;12.072;2022-09-21T03:11:48;0.60;;;0.60;;
9330;SDS011;4704;50.470;12.072;2022-09-21T03:14:16;0.80;;;0.80;;
9330;SDS011;4704;50.470;12.072;2022-09-21T03:16:43;0.80;;;0.80;;
9330;SDS011;4704;50.470;12.072;2022-09-21T03:19:11;0.80;;;0.80;;
9330;SDS011;4704;50.470;12.072;2022-09-21T03:21:41;0.80;;;0.80;;
9330;SDS011;4704;50.470;12.072;2022-09-21T03:24:08;0.73;;;0.73;;
9330;SDS011;4704;50.470;12.072;2022-09-21T03:26:35;1.33;;;0.77;;
9330;SDS011;4704;50.470;12.072;2022-09-21T03:29:03;0.57;;;0.57;;
9330;SDS011;4704;50.470;12.072;2022-09-21T03:31:31;0.77;;;0.77;;
9330;SDS011;4704;50.470;12.072;2022-09-21T03:33:59;0.80;;;0.80;;
9330;SDS011;4704;50.470;12.072;2022-09-21T03:36:27;0.68;;;0.68;;
9330;SDS011;4704;50.470;12.072;2022-09-21T03:38:56;0.88;;;0.88;;
9330;SDS011;4704;50.470;12.072;2022-09-21T03:41:23;0.85;;;0.85;;
9330;SDS011;4704;50.470;12.072;2022-09-21T03:43:50;1.42;;;0.80;;
9330;SDS011;4704;50.470;12.072;2022-09-21T03:46:18;0.60;;;0.60;;
9330;SDS011;4704;50.470;12.072;2022-09-21T03:48:46;0.70;;;0.70;;
9330;SDS011;4704;50.470;12.072;2022-09-21T03:51:14;0.70;;;0.70;;
9330;SDS011;4704;50.470;12.072;2022-09-21T03:53:41;0.70;;;0.70;;
9330;SDS011;4704;50.470;12.072;2022-09-21T03:56:10;0.70;;;0.70;;
9330;SDS011;4704;50.470;12.072;2022-09-21T03:58:38;0.70;;;0.70;;
9330;SDS011;4704;50.470;12.072;2022-09-21T04:01:05;0.80;;;0.80;;
9330;SDS011;4704;50.470;12.072;2022-09-21T04:03:33;0.85;;;0.75;;
9330;SDS011;4704;50.470;12.072;2022-09-21T04:06:07;0.70;;;0.70;;
9330;SDS011;4704;50.470;12.072;2022-09-21T04:08:34;0.60;;;0.60;;
9330;SDS011;4704;50.470;12.072;2022-09-21T04:11:07;0.70;;;0.70;;
9330;SDS011;4704;50.470;12.072;2022-09-21T04:13:37;0.60;;;0.60;;
9330;SDS011;4704;50.470;12.072;2022-09-21T04:16:06;0.77;;;0.77;;
9330;SDS011;4704;50.470;12.072;2022-09-21T04:18:34;0.85;;;0.85;;
9330;SDS011;4704;50.470;12.072;2022-09-21T04:21:03;0.60;;;0.60;;
9330;SDS011;4704;50.470;12.072;2022-09-21T04:23:31;0.70;;;0.70;;
9330;SDS011;4704;50.470;12.072;2022-09-21T04:26:00;0.80;;;0.80;;
9330;SDS011;4704;50.470;12.072;2022-09-21T04:28:28;0.82;;;0.82;;
9330;SDS011;4704;50.470;12.072;2022-09-21T04:30:58;0.75;;;0.75;;
9330;SDS011;4704;50.470;12.072;2022-09-21T04:33:26;0.70;;;0.70;;
9330;SDS011;4704;50.470;12.072;2022-09-21T04:35:53;0.60;;;0.60;;
9330;SDS011;4704;50.470;12.072;2022-09-21T04:38:21;0.88;;;0.88;;
9330;SDS011;4704;50.470;12.072;2022-09-21T04:40:55;0.68;;;0.68;;
9330;SDS011;4704;50.470;12.072;2022-09-21T04:43:23;0.63;;;0.63;;
9330;SDS011;4704;50.470;12.072;2022-09-21T04:45:50;0.70;;;0.70;;
9330;SDS011;4704;50.470;12.072;2022-09-21T04:48:19;0.80;;;0.80;;
9330;SDS011;4704;50.470;12.072;2022-09-21T04:50:47;0.65;;;0.65;;
9330;SDS011;4704;50.470;12.072;2022-09-21T04:53:14;0.70;;;0.70;;
9330;SDS011;4704;50.470;12.072;2022-09-21T04:55:43;0.70;;;0.70;;
9330;SDS011;4704;50.470;12.072;2022-09-21T04:58:11;0.60;;;0.60;;
9330;SDS011;4704;50.470;12.072;2022-09-21T05:00:38;0.60;;;0.60;;
9330;SDS011;4704;50.470;12.072;2022-09-21T05:03:06;0.65;;;0.65;;
9330;SDS011;4704;50.470;12.072;2022-09-21T05:05:35;0.82;;;0.82;;
9330;SDS011;4704;50.470;12.072;2022-09-21T05:08:02;0.70;;;0.63;;
9330;SDS011;4704;50.470;12.072;2022-09-21T05:10:30;0.60;;;0.60;;
9330;SDS011;4704;50.470;12.072;2022-09-21T05:12:56;0.73;;;0.73;;
9330;SDS011;4704;50.470;12.072;2022-09-21T05:15:24;1.50;;;0.63;;
9330;SDS011;4704;50.470;12.072;2022-09-21T05:17:51;0.70;;;0.70;;
9330;SDS011;4704;50.470;12.072;2022-09-21T05:20:18;0.80;;;0.80;;
9330;SDS011;4704;50.470;12.072;2022-09-21T05:22:47;0.75;;;0.75;;
9330;SDS011;4704;50.470;12.072;2022-09-21T05:25:15;0.70;;;0.70;;
9330;SDS011;4704;50.470;12.072;2022-09-21T05:27:42;0.65;;;0.65;;
9330;SDS011;4704;50.470;12.072;2022-09-21T05:30:10;0.80;;;0.80;;
9330;SDS011;4704;50.470;12.072;2022-09-21T05:32:40;0.77;;;0.77;;
9330;SDS011;4704;50.470;12.072;2022-09-21T05:35:12;0.75;;;0.75;;
9330;SDS011;4704;50.470;12.072;2022-09-21T05:37:44;0.70;;;0.70;;
9330;SDS011;4704;50.470;12.072;2022-09-21T05:40:15;1.25;;;0.80;;
9330;SDS011;4704;50.470;12.072;2022-09-21T05:42:42;0.70;;;0.70;;
9330;SDS011;4704;50.470;12.072;2022-09-21T05:45:15;0.80;;;0.75;;
9330;SDS011;4704;50.470;12.072;2022-09-21T05:47:47;0.60;;;0.60;;
9330;SDS011;4704;50.470;12.072;2022-09-21T05:50:18;0.70;;;0.70;;
9330;SDS011;4704;50.470;12.072;2022-09-21T05:52:53;0.68;;;0.68;;
9330;SDS011;4704;50.470;12.072;2022-09-21T05:55:27;0.80;;;0.80;;
9330;SDS011;4704;50.470;12.072;2022-09-21T05:57:58;0.80;;;0.80;;
9330;SDS011;4704;50.470;12.072;2022-09-21T06:00:27;0.60;;;0.60;;
9330;SDS011;4704;50.470;12.072;2022-09-21T06:03:09;0.60;;;0.60;;
9330;SDS011;4704;50.470;12.072;2022-09-21T06:05:40;0.90;;;0.90;;
9330;SDS011;4704;50.470;12.072;2022-09-21T06:08:09;0.85;;;0.60;;
9330;SDS011;4704;50.470;12.072;2022-09-21T06:10:38;0.52;;;0.52;;
9330;SDS011;4704;50.470;12.072;2022-09-21T06:13:06;0.90;;;0.90;;
9330;SDS011;4704;50.470;12.072;2022-09-21T06:15:33;1.55;;;0.70;;
9330;SDS011;4704;50.470;12.072;2022-09-21T06:18:02;1.38;;;1.00;;
9330;SDS011;4704;50.470;12.072;2022-09-21T06:20:30;0.95;;;0.88;;
9330;SDS011;4704;50.470;12.072;2022-09-21T06:22:59;2.63;;;0.70;;
9330;SDS011;4704;50.470;12.072;2022-09-21T06:25:26;1.30;;;0.70;;
9330;SDS011;4704;50.470;12.072;2022-09-21T06:27:56;1.45;;;0.90;;
9330;SDS011;4704;50.470;12.072;2022-09-21T06:30:29;1.00;;;0.90;;
9330;SDS011;4704;50.470;12.072;2022-09-21T06:32:57;0.90;;;0.80;;
9330;SDS011;4704;50.470;12.072;2022-09-21T06:35:25;1.15;;;0.60;;
9330;SDS011;4704;50.470;12.072;2022-09-21T06:37:56;0.80;;;0.80;;
9330;SDS011;4704;50.470;12.072;2022-09-21T06:40:24;0.68;;;0.68;;
9330;SDS011;4704;50.470;12.072;2022-09-21T06:42:55;1.13;;;0.80;;
9330;SDS011;4704;50.470;12.072;2022-09-21T06:45:23;0.80;;;0.80;;
9330;SDS011;4704;50.470;12.072;2022-09-21T06:47:51;0.70;;;0.70;;
9330;SDS011;4704;50.470;12.072;2022-09-21T06:50:18;1.42;;;0.90;;
9330;SDS011;4704;50.470;12.072;2022-09-21T06:52:46;1.08;;;0.98;;
9330;SDS011;4704;50.470;12.072;2022-09-21T06:55:14;1.00;;;0.85;;
9330;SDS011;4704;50.470;12.072;2022-09-21T06:57:42;1.08;;;1.00;;
9330;SDS011;4704;50.470;12.072;2022-09-21T07:00:11;0.70;;;0.70;;
9330;SDS011;4704;50.470;12.072;2022-09-21T07:02:41;0.88;;;0.88;;
9330;SDS011;4704;50.470;12.072;2022-09-21T07:05:09;0.88;;;0.88;;
9330;SDS011;4704;50.470;12.072;2022-09-21T07:07:37;0.75;;;0.75;;
9330;SDS011;4704;50.470;12.072;2022-09-21T07:10:08;0.90;;;0.90;;
9330;SDS011;4704;50.470;12.072;2022-09-21T07:12:35;1.08;;;1.02;;
9330;SDS011;4704;50.470;12.072;2022-09-21T07:15:03;1.65;;;0.90;;
9330;SDS011;4704;50.470;12.072;2022-09-21T07:17:33;1.10;;;1.00;;
9330;SDS011;4704;50.470;12.072;2022-09-21T07:20:00;1.20;;;0.95;;
9330;SDS011;4704;50.470;12.072;2022-09-21T07:22:28;1.10;;;1.00;;
9330;SDS011;4704;50.470;12.072;2022-09-21T07:24:56;1.00;;;1.00;;
9330;SDS011;4704;50.470;12.072;2022-09-21T07:27:24;1.10;;;1.10;;
9330;SDS011;4704;50.470;12.072;2022-09-21T07:29:52;1.20;;;1.08;;
9330;SDS011;4704;50.470;12.072;2022-09-21T07:32:19;1.13;;;0.82;;
9330;SDS011;4704;50.470;12.072;2022-09-21T07:34:48;1.75;;;1.17;;
9330;SDS011;4704;50.470;12.072;2022-09-21T07:37:21;1.00;;;0.90;;
9330;SDS011;4704;50.470;12.072;2022-09-21T07:39:48;1.20;;;1.10;;
9330;SDS011;4704;50.470;12.072;2022-09-21T07:42:16;1.30;;;1.20;;
9330;SDS011;4704;50.470;12.072;2022-09-21T07:44:44;1.23;;;1.13;;
9330;SDS011;4704;50.470;12.072;2022-09-21T07:47:12;1.40;;;1.30;;
9330;SDS011;4704;50.470;12.072;2022-09-21T07:49:40;1.40;;;1.30;;
9330;SDS011;4704;50.470;12.072;2022-09-21T07:52:08;13.52;;;11.82;;
9330;SDS011;4704;50.470;12.072;2022-09-21T07:54:36;42.97;;;37.08;;
9330;SDS011;4704;50.470;12.072;2022-09-21T07:57:03;45.40;;;40.15;;
9330;SDS011;4704;50.470;12.072;2022-09-21T07:59:48;50.65;;;44.22;;
9330;SDS011;4704;50.470;12.072;2022-09-21T08:02:16;48.25;;;42.20;;
9330;SDS011;4704;50.470;12.072;2022-09-21T08:04:44;47.08;;;41.90;;
9330;SDS011;4704;50.470;12.072;2022-09-21T08:07:13;47.80;;;40.72;;
9330;SDS011;4704;50.470;12.072;2022-09-21T08:09:40;42.25;;;37.78;;
9330;SDS011;4704;50.470;12.072;2022-09-21T08:12:08;40.95;;;34.80;;
9330;SDS011;4704;50.470;12.072;2022-09-21T08:14:35;38.75;;;33.10;;
9330;SDS011;4704;50.470;12.072;2022-09-21T08:17:02;37.10;;;30.80;;
9330;SDS011;4704;50.470;12.072;2022-09-21T08:19:30;36.00;;;32.03;;
9330;SDS011;4704;50.470;12.072;2022-09-21T08:21:58;43.55;;;39.03;;
9330;SDS011;4704;50.470;12.072;2022-09-21T08:24:27;41.85;;;37.55;;
9330;SDS011;4704;50.470;12.072;2022-09-21T08:26:55;37.20;;;33.22;;
9330;SDS011;4704;50.470;12.072;2022-09-21T08:29:22;35.60;;;31.95;;
9330;SDS011;4704;50.470;12.072;2022-09-21T08:31:50;34.35;;;30.77;;
9330;SDS011;4704;50.470;12.072;2022-09-21T08:34:18;30.70;;;27.60;;
9330;SDS011;4704;50.470;12.072;2022-09-21T08:36:45;31.33;;;28.02;;
9330;SDS011;4704;50.470;12.072;2022-09-21T08:39:12;93.88;;;83.32;;
9330;SDS011;4704;50.470;12.072;2022-09-21T08:41:45;117.57;;;99.00;;
9330;SDS011;4704;50.470;12.072;2022-09-21T08:44:14;105.40;;;88.97;;
9330;SDS011;4704;50.470;12.072;2022-09-21T08:46:43;94.68;;;82.00;;
9330;SDS011;4704;50.470;12.072;2022-09-21T08:49:13;89.22;;;73.55;;
9330;SDS011;4704;50.470;12.072;2022-09-21T08:51:45;77.25;;;66.07;;
9330;SDS011;4704;50.470;12.072;2022-09-21T08:54:15;74.80;;;61.50;;
9330;SDS011;4704;50.470;12.072;2022-09-21T08:56:46;65.03;;;57.60;;
9330;SDS011;4704;50.470;12.072;2022-09-21T08:59:14;63.58;;;56.40;;
9330;SDS011;4704;50.470;12.072;2022-09-21T09:01:47;60.33;;;52.10;;
9330;SDS011;4704;50.470;12.072;2022-09-21T09:04:24;56.42;;;48.67;;
9330;SDS011;4704;50.470;12.072;2022-09-21T09:06:57;51.53;;;45.05;;
9330;SDS011;4704;50.470;12.072;2022-09-21T09:09:38;48.08;;;42.88;;
9330;SDS011;4704;50.470;12.072;2022-09-21T09:12:15;47.03;;;40.38;;
9330;SDS011;4704;50.470;12.072;2022-09-21T09:14:53;45.08;;;40.13;;
9330;SDS011;4704;50.470;12.072;2022-09-21T09:17:30;42.45;;;36.72;;
9330;SDS011;4704;50.470;12.072;2022-09-21T09:20:00;38.88;;;33.85;;
9330;SDS011;4704;50.470;12.072;2022-09-21T09:22:29;36.05;;;32.25;;
9330;SDS011;4704;50.470;12.072;2022-09-21T09:24:59;34.30;;;30.80;;
9330;SDS011;4704;50.470;12.072;2022-09-21T09:27:31;31.58;;;28.13;;
9330;SDS011;4704;50.470;12.072;2022-09-21T09:30:02;31.63;;;27.60;;
9330;SDS011;4704;50.470;12.072;2022-09-21T09:32:38;30.45;;;27.17;;
9330;SDS011;4704;50.470;12.072;2022-09-21T09:35:12;27.90;;;24.55;;
9330;SDS011;4704;50.470;12.072;2022-09-21T09:37:41;27.30;;;24.25;;
9330;SDS011;4704;50.470;12.072;2022-09-21T09:40:10;27.27;;;23.10;;
9330;SDS011;4704;50.470;12.072;2022-09-21T09:42:42;26.17;;;21.77;;
9330;SDS011;4704;50.470;12.072;2022-09-21T09:45:18;23.08;;;20.58;;
9330;SDS011;4704;50.470;12.072;2022-09-21T09:47:52;22.30;;;19.90;;
9330;SDS011;4704;50.470;12.072;2022-09-21T09:50:24;21.98;;;19.52;;
9330;SDS011;4704;50.470;12.072;2022-09-21T09:52:55;20.85;;;18.65;;
9330;SDS011;4704;50.470;12.072;2022-09-21T09:55:26;19.63;;;17.52;;
9330;SDS011;4704;50.470;12.072;2022-09-21T09:57:57;19.63;;;17.42;;
9330;SDS011;4704;50.470;12.072;2022-09-21T10:00:25;18.70;;;16.40;;
9330;SDS011;4704;50.470;12.072;2022-09-21T10:02:53;17.23;;;15.30;;
9330;SDS011;4704;50.470;12.072;2022-09-21T10:05:22;17.40;;;15.60;;
9330;SDS011;4704;50.470;12.072;2022-09-21T10:07:50;17.10;;;15.30;;
9330;SDS011;4704;50.470;12.072;2022-09-21T10:10:22;15.32;;;13.73;;
9330;SDS011;4704;50.470;12.072;2022-09-21T10:12:50;15.15;;;13.52;;
9330;SDS011;4704;50.470;12.072;2022-09-21T10:15:19;14.18;;;12.68;;
9330;SDS011;4704;50.470;12.072;2022-09-21T10:17:47;13.48;;;12.15;;
9330;SDS011;4704;50.470;12.072;2022-09-21T10:20:15;14.10;;;12.40;;
9330;SDS011;4704;50.470;12.072;2022-09-21T10:22:44;13.18;;;11.77;;
9330;SDS011;4704;50.470;12.072;2022-09-21T10:25:13;12.85;;;11.35;;
9330;SDS011;4704;50.470;12.072;2022-09-21T10:27:42;12.43;;;11.10;;
9330;SDS011;4704;50.470;12.072;2022-09-21T10:30:19;12.38;;;11.07;;
9330;SDS011;4704;50.470;12.072;2022-09-21T10:32:57;11.13;;;9.95;;
9330;SDS011;4704;50.470;12.072;2022-09-21T10:35:25;11.70;;;9.50;;
9330;SDS011;4704;50.470;12.072;2022-09-21T10:40:37;10.15;;;9.07;;
9330;SDS011;4704;50.470;12.072;2022-09-21T10:43:18;10.35;;;8.50;;
9330;SDS011;4704;50.470;12.072;2022-09-21T10:45:51;9.25;;;8.32;;
9330;SDS011;4704;50.470;12.072;2022-09-21T10:48:20;10.02;;;9.02;;
9330;SDS011;4704;50.470;12.072;2022-09-21T10:50:49;8.50;;;7.60;;
9330;SDS011;4704;50.470;12.072;2022-09-21T10:53:18;8.55;;;7.70;;
9330;SDS011;4704;50.470;12.072;2022-09-21T10:55:50;9.63;;;8.05;;
9330;SDS011;4704;50.470;12.072;2022-09-21T10:58:19;8.95;;;8.05;;
9330;SDS011;4704;50.470;12.072;2022-09-21T11:00:47;8.35;;;7.47;;
9330;SDS011;4704;50.470;12.072;2022-09-21T11:03:34;8.05;;;6.90;;
9330;SDS011;4704;50.470;12.072;2022-09-21T11:06:07;8.52;;;7.60;;
9330;SDS011;4704;50.470;12.072;2022-09-21T11:08:36;7.38;;;6.50;;
9330;SDS011;4704;50.470;12.072;2022-09-21T11:11:12;7.32;;;6.63;;
9330;SDS011;4704;50.470;12.072;2022-09-21T11:13:45;7.78;;;6.88;;
9330;SDS011;4704;50.470;12.072;2022-09-21T11:16:15;7.00;;;6.30;;
9330;SDS011;4704;50.470;12.072;2022-09-21T11:18:48;6.97;;;6.28;;
9330;SDS011;4704;50.470;12.072;2022-09-21T11:21:18;6.82;;;6.00;;
9330;SDS011;4704;50.470;12.072;2022-09-21T11:23:54;6.43;;;5.82;;
9330;SDS011;4704;50.470;12.072;2022-09-21T11:26:29;5.90;;;5.30;;
9330;SDS011;4704;50.470;12.072;2022-09-21T11:29:02;6.25;;;5.65;;
9330;SDS011;4704;50.470;12.072;2022-09-21T11:34:32;5.72;;;5.22;;
9330;SDS011;4704;50.470;12.072;2022-09-21T11:37:04;5.88;;;5.28;;
9330;SDS011;4704;50.470;12.072;2022-09-21T11:39:37;6.00;;;5.30;;
9330;SDS011;4704;50.470;12.072;2022-09-21T11:42:11;5.55;;;5.05;;
9330;SDS011;4704;50.470;12.072;2022-09-21T11:44:43;5.75;;;4.97;;
9330;SDS011;4704;50.470;12.072;2022-09-21T11:47:22;5.30;;;4.50;;
9330;SDS011;4704;50.470;12.072;2022-09-21T11:50:01;5.00;;;4.50;;
9330;SDS011;4704;50.470;12.072;2022-09-21T11:52:36;5.20;;;4.70;;
9330;SDS011;4704;50.470;12.072;2022-09-21T11:55:20;4.40;;;4.00;;
9330;SDS011;4704;50.470;12.072;2022-09-21T11:57:51;4.70;;;4.18;;
9330;SDS011;4704;50.470;12.072;2022-09-21T12:00:20;6.03;;;4.43;;
9330;SDS011;4704;50.470;12.072;2022-09-21T12:03:00;4.55;;;4.13;;
9330;SDS011;4704;50.470;12.072;2022-09-21T12:05:35;4.93;;;4.43;;
9330;SDS011;4704;50.470;12.072;2022-09-21T12:08:22;5.38;;;4.28;;
9330;SDS011;4704;50.470;12.072;2022-09-21T12:10:55;4.30;;;3.90;;
9330;SDS011;4704;50.470;12.072;2022-09-21T12:13:31;4.25;;;3.85;;
9330;SDS011;4704;50.470;12.072;2022-09-21T12:16:02;4.05;;;3.65;;
9330;SDS011;4704;50.470;12.072;2022-09-21T12:18:33;4.03;;;3.63;;
9330;SDS011;4704;50.470;12.072;2022-09-21T12:21:08;5.03;;;3.90;;
9330;SDS011;4704;50.470;12.072;2022-09-21T12:23:39;4.22;;;3.58;;
9330;SDS011;4704;50.470;12.072;2022-09-21T12:26:07;4.35;;;3.90;;
9330;SDS011;4704;50.470;12.072;2022-09-21T12:28:38;4.20;;;3.78;;
9330;SDS011;4704;50.470;12.072;2022-09-21T12:31:08;4.07;;;3.58;;
9330;SDS011;4704;50.470;12.072;2022-09-21T12:33:39;5.00;;;3.20;;
9330;SDS011;4704;50.470;12.072;2022-09-21T12:36:11;4.78;;;3.50;;
9330;SDS011;4704;50.470;12.072;2022-09-21T12:38:42;4.70;;;3.50;;
9330;SDS011;4704;50.470;12.072;2022-09-21T12:41:13;3.90;;;3.38;;
9330;SDS011;4704;50.470;12.072;2022-09-21T12:43:43;4.53;;;3.70;;
9330;SDS011;4704;50.470;12.072;2022-09-21T12:46:14;4.85;;;3.47;;
9330;SDS011;4704;50.470;12.072;2022-09-21T12:48:43;3.85;;;3.45;;
9330;SDS011;4704;50.470;12.072;2022-09-21T12:51:13;4.75;;;3.40;;
9330;SDS011;4704;50.470;12.072;2022-09-21T12:53:43;4.88;;;3.60;;
9330;SDS011;4704;50.470;12.072;2022-09-21T12:56:14;5.53;;;3.55;;
9330;SDS011;4704;50.470;12.072;2022-09-21T12:58:49;4.55;;;3.22;;
9330;SDS011;4704;50.470;12.072;2022-09-21T13:01:20;4.07;;;3.00;;
9330;SDS011;4704;50.470;12.072;2022-09-21T13:03:57;4.63;;;3.20;;
9330;SDS011;4704;50.470;12.072;2022-09-21T13:09:17;7.47;;;6.28;;
9330;SDS011;4704;50.470;12.072;2022-09-21T13:11:49;8.85;;;6.15;;
9330;SDS011;4704;50.470;12.072;2022-09-21T13:14:18;13.95;;;9.07;;
9330;SDS011;4704;50.470;12.072;2022-09-21T13:16:52;11.60;;;8.82;;
9330;SDS011;4704;50.470;12.072;2022-09-21T13:19:22;12.77;;;8.63;;
9330;SDS011;4704;50.470;12.072;2022-09-21T13:24:41;10.25;;;7.80;;
9330;SDS011;4704;50.470;12.072;2022-09-21T13:27:09;9.63;;;7.38;;
9330;SDS011;4704;50.470;12.072;2022-09-21T13:29:38;8.95;;;7.20;;
9330;SDS011;4704;50.470;12.072;2022-09-21T13:32:20;8.18;;;7.07;;
9330;SDS011;4704;50.470;12.072;2022-09-21T13:34:48;10.70;;;6.88;;
9330;SDS011;4704;50.470;12.072;2022-09-21T13:37:26;8.60;;;6.05;;
9330;SDS011;4704;50.470;12.072;2022-09-21T13:42:46;9.05;;;5.75;;
9330;SDS011;4704;50.470;12.072;2022-09-21T13:48:17;7.75;;;5.82;;
9330;SDS011;4704;50.470;12.072;2022-09-21T13:50:53;9.68;;;5.38;;
9330;SDS011;4704;50.470;12.072;2022-09-21T13:53:23;6.05;;;5.00;;
9330;SDS011;4704;50.470;12.072;2022-09-21T13:55:53;10.05;;;5.90;;
9330;SDS011;4704;50.470;12.072;2022-09-21T13:58:23;5.93;;;4.65;;
9330;SDS011;4704;50.470;12.072;2022-09-21T14:00:52;6.28;;;4.93;;
9330;SDS011;4704;50.470;12.072;2022-09-21T14:03:22;6.70;;;4.68;;
9330;SDS011;4704;50.470;12.072;2022-09-21T14:05:51;8.00;;;4.78;;
9330;SDS011;4704;50.470;12.072;2022-09-21T14:08:21;5.65;;;4.40;;
9330;SDS011;4704;50.470;12.072;2022-09-21T14:10:50;6.78;;;4.30;;
9330;SDS011;4704;50.470;12.072;2022-09-21T14:13:25;5.93;;;4.13;;
9330;SDS011;4704;50.470;12.072;2022-09-21T14:15:54;5.38;;;4.00;;
9330;SDS011;4704;50.470;12.072;2022-09-21T14:18:41;7.25;;;3.70;;
9330;SDS011;4704;50.470;12.072;2022-09-21T14:21:15;5.00;;;3.92;;
9330;SDS011;4704;50.470;12.072;2022-09-21T14:26:32;6.10;;;3.88;;
9330;SDS011;4704;50.470;12.072;2022-09-21T14:29:06;3.88;;;3.40;;
9330;SDS011;4704;50.470;12.072;2022-09-21T14:31:35;4.70;;;3.75;;
9330;SDS011;4704;50.470;12.072;2022-09-21T14:34:04;4.57;;;3.60;;
9330;SDS011;4704;50.470;12.072;2022-09-21T14:36:38;6.50;;;3.30;;
9330;SDS011;4704;50.470;12.072;2022-09-21T14:39:12;4.55;;;3.22;;
9330;SDS011;4704;50.470;12.072;2022-09-21T14:41:42;3.72;;;3.28;;
9330;SDS011;4704;50.470;12.072;2022-09-21T14:44:19;4.85;;;3.35;;
9330;SDS011;4704;50.470;12.072;2022-09-21T14:46:49;4.88;;;3.17;;
9330;SDS011;4704;50.470;12.072;2022-09-21T14:49:32;5.65;;;3.58;;
9330;SDS011;4704;50.470;12.072;2022-09-21T14:52:06;3.45;;;2.85;;
9330;SDS011;4704;50.470;12.072;2022-09-21T14:54:38;3.90;;;2.83;;
9330;SDS011;4704;50.470;12.072;2022-09-21T14:57:14;3.30;;;2.80;;
9330;SDS011;4704;50.470;12.072;2022-09-21T14:59:50;3.97;;;2.47;;
9330;SDS011;4704;50.470;12.072;2022-09-21T15:02:20;2.97;;;2.67;;
9330;SDS011;4704;50.470;12.072;2022-09-21T15:07:36;2.90;;;2.60;;
9330;SDS011;4704;50.470;12.072;2022-09-21T15:10:31;2.58;;;2.20;;
9330;SDS011;4704;50.470;12.072;2022-09-21T15:13:21;2.78;;;2.50;;
9330;SDS011;4704;50.470;12.072;2022-09-21T15:15:58;3.08;;;2.47;;
9330;SDS011;4704;50.470;12.072;2022-09-21T15:18:31;4.43;;;2.30;;
9330;SDS011;4704;50.470;12.072;2022-09-21T15:21:01;2.78;;;2.30;;
9330;SDS011;4704;50.470;12.072;2022-09-21T15:23:30;2.70;;;2.40;;
9330;SDS011;4704;50.470;12.072;2022-09-21T15:25:58;2.90;;;2.13;;
9330;SDS011;4704;50.470;12.072;2022-09-21T15:28:29;3.92;;;2.20;;
9330;SDS011;4704;50.470;12.072;2022-09-21T15:31:01;2.85;;;2.30;;
9330;SDS011;4704;50.470;12.072;2022-09-21T15:33:30;2.92;;;2.20;;
9330;SDS011;4704;50.470;12.072;2022-09-21T15:35:59;2.20;;;1.90;;
9330;SDS011;4704;50.470;12.072;2022-09-21T15:38:27;3.38;;;2.35;;
9330;SDS011;4704;50.470;12.072;2022-09-21T15:40:55;2.30;;;2.00;;